createdAt,value
2022-08-18T00:01:32.720Z,52.91
2022-08-18T00:04:03.318Z,53.16
2022-08-18T00:06:32.852Z,52.96
2022-08-18T00:09:03.521Z,52.83
2022-08-18T00:11:41.157Z,52.96
2022-08-18T00:14:21.723Z,52.97
2022-08-18T00:16:53.688Z,53.12
2022-08-18T00:19:46.826Z,52.85
2022-08-18T00:22:15.146Z,53.04
2022-08-18T00:24:48.393Z,53.14
2022-08-18T00:27:23.691Z,52.92
2022-08-18T00:29:55.241Z,52.90
2022-08-18T00:32:26.189Z,52.83
2022-08-18T00:34:55.503Z,53.12
2022-08-18T00:37:25.232Z,53.19
2022-08-18T00:39:54.716Z,53.08
2022-08-18T00:42:28.840Z,53.08
2022-08-18T00:45:05.044Z,52.74
2022-08-18T00:47:42.758Z,52.82
2022-08-18T00:50:25.402Z,53.17
2022-08-18T00:52:58.320Z,52.88
2022-08-18T00:55:29.553Z,53.10
2022-08-18T00:58:04.201Z,53.22
2022-08-18T01:00:34.707Z,53.01
2022-08-18T01:03:08.468Z,53.04
2022-08-18T01:05:43.396Z,53.61
2022-08-18T01:08:17.301Z,53.25
2022-08-18T01:10:59.023Z,53.48
2022-08-18T01:13:30.811Z,53.59
2022-08-18T01:16:22.323Z,53.70
2022-08-18T01:19:08.340Z,53.63
2022-08-18T01:21:54.851Z,53.63
2022-08-18T01:24:48.530Z,53.58
2022-08-18T01:27:18.929Z,53.50
2022-08-18T01:29:49.240Z,53.75
2022-08-18T01:32:20.634Z,53.53
2022-08-18T01:34:50.780Z,53.49
2022-08-18T01:37:32.935Z,53.19
2022-08-18T01:41:11.166Z,53.49
2022-08-18T01:42:54.321Z,53.71
2022-08-18T01:45:22.991Z,53.58
2022-08-18T01:47:51.738Z,53.58
2022-08-18T01:50:20.341Z,53.70
2022-08-18T01:52:50.311Z,53.43
2022-08-18T01:55:20.521Z,54.27
2022-08-18T01:57:49.233Z,54.07
2022-08-18T02:00:19.704Z,54.09
2022-08-18T02:02:58.127Z,53.93
2022-08-18T02:05:36.050Z,53.89
2022-08-18T02:08:05.132Z,54.03
2022-08-18T02:10:35.972Z,55.13
2022-08-18T02:13:05.117Z,54.78
2022-08-18T02:15:34.479Z,54.81
2022-08-18T02:18:03.420Z,54.59
2022-08-18T02:20:32.522Z,54.55
2022-08-18T02:23:01.030Z,54.96
2022-08-18T02:25:29.581Z,55.03
2022-08-18T02:27:59.871Z,54.65
2022-08-18T02:30:28.484Z,55.04
2022-08-18T02:32:59.392Z,54.76
2022-08-18T02:35:27.942Z,54.87
2022-08-18T02:37:56.490Z,54.78
2022-08-18T02:40:25.081Z,55.47
2022-08-18T02:42:54.551Z,55.17
2022-08-18T02:45:24.740Z,55.19
2022-08-18T02:47:58.381Z,55.07
2022-08-18T02:50:27.093Z,55.43
2022-08-18T02:52:55.691Z,55.38
2022-08-18T02:55:26.979Z,55.30
2022-08-18T02:57:55.481Z,55.79
2022-08-18T03:00:25.495Z,55.22
2022-08-18T03:02:54.801Z,55.49
2022-08-18T03:05:23.320Z,55.48
2022-08-18T03:07:51.999Z,55.60
2022-08-18T03:10:33.479Z,55.59
2022-08-18T03:13:02.910Z,55.47
2022-08-18T03:15:33.372Z,55.76
2022-08-18T03:18:02.643Z,55.56
2022-08-18T03:20:31.693Z,55.81
2022-08-18T03:23:05.731Z,55.69
2022-08-18T03:25:44.470Z,55.83
2022-08-18T03:28:13.720Z,55.96
2022-08-18T03:30:44.710Z,55.93
2022-08-18T03:33:13.230Z,56.09
2022-08-18T03:35:42.359Z,56.21
2022-08-18T03:38:11.710Z,56.33
2022-08-18T03:40:40.570Z,55.91
2022-08-18T03:43:49.647Z,56.07
2022-08-18T03:46:02.440Z,56.16
2022-08-18T03:48:31.111Z,56.09
2022-08-18T03:51:05.584Z,56.15
2022-08-18T03:53:35.010Z,55.96
2022-08-18T03:56:03.560Z,56.37
2022-08-18T03:58:32.050Z,56.16
2022-08-18T04:01:03.690Z,56.43
2022-08-18T04:03:32.231Z,56.41
2022-08-18T04:06:00.719Z,56.30
2022-08-18T04:08:29.280Z,56.36
2022-08-18T04:10:58.170Z,56.51
2022-08-18T04:13:26.671Z,56.29
2022-08-18T04:15:55.192Z,56.36
2022-08-18T04:18:25.160Z,56.48
2022-08-18T04:20:58.952Z,56.65
2022-08-18T04:23:28.361Z,56.85
2022-08-18T04:26:01.749Z,56.53
2022-08-18T04:28:30.670Z,56.85
2022-08-18T04:30:59.700Z,56.46
2022-08-18T04:33:30.111Z,56.94
2022-08-18T04:35:58.690Z,56.97
2022-08-18T04:38:27.621Z,56.81
2022-08-18T04:40:56.150Z,57.18
2022-08-18T04:43:24.749Z,56.95
2022-08-18T04:45:53.250Z,57.09
2022-08-18T04:48:22.812Z,56.70
2022-08-18T04:50:53.020Z,56.90
2022-08-18T04:53:38.801Z,57.16
2022-08-18T04:56:07.900Z,57.72
2022-08-18T04:58:36.659Z,57.74
2022-08-18T05:01:05.185Z,57.58
2022-08-18T05:03:33.729Z,57.87
2022-08-18T05:06:07.412Z,57.95
2022-08-18T05:08:36.330Z,58.14
2022-08-18T05:11:05.290Z,58.43
2022-08-18T05:13:35.791Z,58.33
2022-08-18T05:16:11.782Z,58.22
2022-08-18T05:18:42.829Z,58.57
2022-08-18T05:21:15.932Z,58.64
2022-08-18T05:23:45.371Z,58.90
2022-08-18T05:26:14.830Z,58.94
2022-08-18T05:28:44.150Z,58.88
2022-08-18T05:31:14.754Z,58.89
2022-08-18T05:33:44.270Z,59.06
2022-08-18T05:36:28.862Z,58.91
2022-08-18T05:39:04.469Z,58.99
2022-08-18T05:41:34.909Z,58.87
2022-08-18T05:44:04.080Z,58.84
2022-08-18T05:46:52.521Z,58.95
2022-08-18T05:49:22.069Z,59.31
2022-08-18T05:51:56.690Z,58.98
2022-08-18T05:54:44.210Z,59.21
2022-08-18T05:57:17.529Z,59.45
2022-08-18T05:59:47.846Z,59.16
2022-08-18T06:02:19.955Z,59.19
2022-08-18T06:04:53.309Z,59.22
2022-08-18T06:07:33.733Z,59.35
2022-08-18T06:10:03.105Z,59.15
2022-08-18T06:12:37.647Z,59.25
2022-08-18T06:15:10.291Z,59.08
2022-08-18T06:17:56.070Z,59.48
2022-08-18T06:20:30.891Z,59.07
2022-08-18T06:23:16.816Z,59.27
2022-08-18T06:25:59.091Z,59.06
2022-08-18T06:28:51.949Z,59.13
2022-08-18T06:31:29.725Z,58.97
2022-08-18T06:34:05.506Z,58.98
2022-08-18T06:36:41.130Z,59.09
2022-08-18T06:39:18.859Z,59.41
2022-08-18T06:41:50.120Z,59.39
2022-08-18T06:44:25.239Z,59.32
2022-08-18T06:47:04.552Z,59.29
2022-08-18T06:49:40.579Z,59.14
2022-08-18T06:52:29.316Z,59.07
2022-08-18T06:55:02.509Z,58.95
2022-08-18T06:57:34.844Z,59.17
2022-08-18T07:00:10.031Z,59.50
2022-08-18T07:02:48.569Z,59.45
2022-08-18T07:05:26.190Z,59.27
2022-08-18T07:08:18.472Z,59.23
2022-08-18T07:10:51.682Z,59.43
2022-08-18T07:13:25.720Z,59.73
2022-08-18T07:15:56.160Z,59.52
2022-08-18T07:18:30.100Z,59.36
2022-08-18T07:21:00.710Z,59.29
2022-08-18T07:23:34.087Z,59.20
2022-08-18T07:26:08.970Z,59.09
2022-08-18T07:28:42.115Z,58.94
2022-08-18T07:31:31.089Z,59.53
2022-08-18T07:34:04.560Z,59.37
2022-08-18T07:36:37.274Z,59.16
2022-08-18T07:39:13.619Z,59.47
2022-08-18T07:41:51.017Z,59.62
2022-08-18T07:44:26.639Z,59.32
2022-08-18T07:46:59.921Z,59.66
2022-08-18T07:49:35.476Z,59.62
2022-08-18T07:52:16.373Z,59.29
2022-08-18T07:55:05.201Z,59.53
2022-08-18T07:57:44.985Z,59.43
2022-08-18T08:00:35.424Z,59.35
2022-08-18T08:03:20.059Z,59.49
2022-08-18T08:05:55.479Z,59.72
2022-08-18T08:08:31.589Z,59.65
2022-08-18T08:11:11.022Z,59.76
2022-08-18T08:13:56.371Z,59.66
2022-08-18T08:16:35.811Z,59.78
2022-08-18T08:19:14.350Z,60.07
2022-08-18T08:25:44.692Z,60.50
2022-08-18T08:28:23.511Z,63.98
2022-08-18T08:31:25.684Z,65.08
2022-08-18T08:33:57.385Z,65.84
2022-08-18T08:36:30.300Z,66.02
2022-08-18T08:39:16.546Z,66.33
2022-08-18T08:42:33.658Z,66.85
2022-08-18T08:45:11.920Z,66.83
2022-08-18T08:47:49.159Z,67.06
2022-08-18T08:50:21.489Z,67.64
2022-08-18T08:52:57.371Z,67.81
2022-08-18T08:55:28.780Z,67.69
2022-08-18T08:58:15.305Z,67.77
2022-08-18T09:00:44.871Z,67.92
2022-08-18T09:03:32.479Z,68.22
2022-08-18T09:06:27.675Z,68.32
2022-08-18T09:09:13.320Z,68.72
2022-08-18T09:12:01.610Z,68.55
2022-08-18T09:14:53.130Z,68.68
2022-08-18T09:17:47.740Z,68.76
2022-08-18T09:20:38.139Z,68.64
2022-08-18T09:23:12.249Z,68.84
2022-08-18T09:25:50.253Z,67.16
2022-08-18T09:28:21.250Z,66.48
2022-08-18T09:31:15.079Z,65.74
2022-08-18T09:34:10.929Z,65.43
2022-08-18T09:36:57.080Z,64.90
2022-08-18T09:39:54.702Z,64.59
2022-08-18T09:43:02.657Z,64.07
2022-08-18T09:45:58.820Z,64.45
2022-08-18T09:48:33.825Z,64.41
2022-08-18T09:51:33.160Z,64.37
2022-08-18T09:54:21.877Z,64.05
2022-08-18T09:57:21.870Z,64.22
2022-08-18T10:00:00.636Z,63.93
2022-08-18T10:03:14.537Z,63.62
2022-08-18T10:09:27.211Z,63.78
2022-08-18T10:12:32.225Z,63.84
2022-08-18T10:15:33.070Z,63.69
2022-08-18T10:18:46.748Z,63.63
2022-08-18T10:21:21.154Z,63.55
2022-08-18T10:24:21.755Z,63.37
2022-08-18T10:27:13.887Z,63.42
2022-08-18T10:29:55.086Z,63.16
2022-08-18T10:32:41.315Z,62.92
2022-08-18T10:35:52.836Z,62.93
2022-08-18T10:38:35.586Z,62.83
2022-08-18T10:41:16.965Z,63.08
2022-08-18T10:43:55.532Z,62.87
2022-08-18T10:46:32.876Z,62.89
2022-08-18T10:49:18.233Z,63.63
2022-08-18T10:52:01.400Z,63.10
2022-08-18T10:54:50.977Z,63.51
2022-08-18T10:57:32.875Z,63.07
2022-08-18T11:00:07.297Z,63.39
2022-08-18T11:03:42.839Z,63.24
2022-08-18T11:05:47.228Z,62.95
2022-08-18T11:08:18.765Z,63.58
2022-08-18T11:11:32.676Z,63.30
2022-08-18T11:13:58.466Z,63.59
2022-08-18T11:16:41.636Z,63.39
2022-08-18T11:19:17.827Z,63.52
2022-08-18T11:21:51.366Z,63.77
2022-08-18T11:24:23.322Z,63.82
2022-08-18T11:26:55.898Z,63.57
2022-08-18T11:29:28.524Z,64.15
2022-08-18T11:32:02.185Z,64.34
2022-08-18T11:34:41.197Z,64.22
2022-08-18T11:37:25.849Z,63.95
2022-08-18T11:39:56.439Z,64.06
2022-08-18T11:42:31.055Z,64.15
2022-08-18T11:45:09.146Z,64.45
2022-08-18T11:48:00.104Z,64.21
2022-08-18T11:50:32.307Z,64.55
2022-08-18T11:53:24.049Z,64.62
2022-08-18T11:56:17.994Z,64.24
2022-08-18T11:58:50.525Z,64.50
2022-08-18T12:01:41.903Z,64.26
2022-08-18T12:04:25.033Z,64.61
2022-08-18T12:07:04.641Z,64.74
2022-08-18T12:15:44.071Z,64.67
2022-08-18T12:18:18.949Z,64.74
2022-08-18T12:20:56.774Z,64.67
2022-08-18T12:23:39.032Z,64.75
2022-08-18T12:29:16.336Z,64.91
2022-08-18T12:31:48.245Z,65.24
2022-08-18T12:34:24.912Z,65.32
2022-08-18T12:36:57.175Z,65.41
2022-08-18T12:39:27.165Z,65.04
2022-08-18T12:41:55.805Z,65.30
2022-08-18T12:44:27.228Z,65.34
2022-08-18T12:46:58.104Z,65.49
2022-08-18T12:49:29.615Z,65.68
2022-08-18T12:51:58.538Z,65.25
2022-08-18T12:54:28.466Z,65.50
2022-08-18T12:56:59.755Z,64.54
2022-08-18T12:59:32.451Z,65.18
2022-08-18T13:02:06.528Z,64.35
2022-08-18T13:04:37.677Z,66.60
2022-08-18T13:07:08.925Z,65.83
2022-08-18T13:09:53.253Z,65.47
2022-08-18T13:12:27.528Z,65.35
2022-08-18T13:14:58.043Z,64.76
2022-08-18T13:17:30.188Z,64.91
2022-08-18T13:20:04.822Z,65.57
2022-08-18T13:22:33.580Z,65.41
2022-08-18T13:25:05.732Z,65.69
2022-08-18T13:27:36.059Z,65.47
2022-08-18T13:30:30.530Z,64.62
2022-08-18T13:32:59.259Z,65.86
2022-08-18T13:35:38.451Z,66.01
2022-08-18T13:38:25.869Z,66.20
2022-08-18T13:41:00.145Z,66.01
2022-08-18T13:43:34.282Z,65.84
2022-08-18T13:46:04.057Z,65.32
2022-08-18T13:48:33.017Z,65.37
2022-08-18T13:51:04.393Z,65.00
2022-08-18T13:53:34.293Z,64.78
2022-08-18T13:56:04.997Z,65.00
2022-08-18T13:58:34.240Z,64.87
2022-08-18T14:01:39.778Z,65.35
2022-08-18T14:03:53.966Z,65.40
2022-08-18T14:06:24.081Z,65.80
2022-08-18T14:08:54.436Z,65.90
2022-08-18T14:11:34.409Z,66.03
2022-08-18T14:14:05.297Z,65.87
2022-08-18T14:16:34.556Z,66.05
2022-08-18T14:19:22.848Z,65.97
2022-08-18T14:22:11.662Z,65.99
2022-08-18T14:24:58.787Z,65.75
2022-08-18T14:27:35.270Z,65.57
2022-08-18T14:30:06.884Z,65.38
2022-08-18T14:32:36.846Z,64.99
2022-08-18T14:35:33.478Z,64.50
2022-08-18T14:38:09.949Z,64.29
2022-08-18T14:52:32.943Z,63.28
2022-08-18T14:55:01.993Z,62.94
2022-08-18T14:57:34.104Z,62.74
2022-08-18T15:00:11.546Z,62.46
2022-08-18T15:02:41.851Z,62.03
2022-08-18T15:05:19.430Z,61.78
2022-08-18T15:07:54.745Z,61.68
2022-08-18T15:10:28.058Z,61.52
2022-08-18T15:12:58.035Z,61.38
2022-08-18T15:15:26.994Z,60.90
2022-08-18T15:18:11.105Z,60.63
2022-08-18T15:20:55.726Z,60.42
2022-08-18T15:23:43.121Z,60.42
2022-08-18T15:26:12.257Z,60.57
2022-08-18T15:28:43.018Z,60.26
2022-08-18T15:31:17.067Z,60.47
2022-08-18T15:33:51.238Z,60.25
2022-08-18T15:36:29.054Z,60.16
2022-08-18T15:38:59.762Z,60.04
2022-08-18T15:41:34.895Z,59.90
2022-08-18T15:44:13.814Z,59.48
2022-08-18T15:46:42.343Z,59.53
2022-08-18T15:49:19.864Z,59.07
2022-08-18T15:51:52.510Z,59.14
2022-08-18T15:54:22.725Z,58.80
2022-08-18T15:56:57.991Z,58.41
2022-08-18T15:59:34.403Z,58.57
2022-08-18T16:02:11.429Z,58.02
2022-08-18T16:04:44.888Z,58.11
2022-08-18T16:07:14.229Z,58.15
2022-08-18T16:09:44.190Z,57.81
2022-08-18T16:12:12.640Z,57.64
2022-08-18T16:14:41.600Z,57.31
2022-08-18T16:17:23.504Z,57.80
2022-08-18T16:19:52.471Z,57.66
2022-08-18T16:22:22.062Z,57.45
2022-08-18T16:24:54.634Z,57.57
2022-08-18T16:27:23.723Z,57.40
2022-08-18T16:29:52.679Z,57.38
2022-08-18T16:32:21.234Z,57.08
2022-08-18T16:34:49.743Z,57.52
2022-08-18T16:37:18.157Z,57.39
2022-08-18T16:39:46.666Z,57.29
2022-08-18T16:42:17.530Z,57.35
2022-08-18T16:44:46.185Z,57.48
2022-08-18T16:47:17.806Z,57.21
2022-08-18T16:49:48.806Z,56.58
2022-08-18T16:52:18.746Z,56.36
2022-08-18T16:54:47.726Z,56.07
2022-08-18T16:57:55.599Z,55.77
2022-08-18T17:00:42.127Z,55.20
2022-08-18T17:03:28.188Z,55.27
2022-08-18T17:06:02.457Z,54.64
2022-08-18T17:08:33.727Z,53.83
2022-08-18T17:11:02.724Z,53.28
2022-08-18T17:13:33.067Z,52.61
2022-08-18T17:16:01.608Z,53.00
2022-08-18T17:18:31.748Z,53.78
2022-08-18T17:21:03.908Z,53.32
2022-08-18T17:23:32.348Z,53.30
2022-08-18T17:26:02.731Z,53.17
2022-08-18T17:28:50.289Z,52.99
2022-08-18T17:31:21.210Z,52.94
2022-08-18T17:33:50.409Z,52.76
2022-08-18T17:36:24.313Z,52.67
2022-08-18T17:39:00.199Z,52.88
2022-08-18T17:41:29.729Z,52.93
2022-08-18T17:44:03.132Z,53.46
2022-08-18T17:46:41.342Z,54.04
2022-08-18T17:49:17.463Z,54.51
2022-08-18T17:51:51.538Z,54.26
2022-08-18T17:54:32.600Z,54.29
2022-08-18T17:57:05.769Z,54.01
2022-08-18T17:59:45.702Z,53.55
2022-08-18T18:02:29.220Z,52.88
2022-08-18T18:04:59.020Z,53.14
2022-08-18T18:07:29.990Z,52.12
2022-08-18T18:10:02.470Z,53.49
2022-08-18T18:12:36.520Z,52.94
2022-08-18T18:15:09.783Z,52.84
2022-08-18T18:17:40.321Z,53.65
2022-08-18T18:20:24.210Z,53.34
2022-08-18T18:22:53.500Z,55.01
2022-08-18T18:25:34.734Z,55.28
2022-08-18T18:28:03.640Z,56.50
2022-08-18T18:30:33.661Z,54.58
2022-08-18T18:33:05.822Z,55.61
2022-08-18T18:35:53.401Z,55.03
2022-08-18T18:38:29.191Z,54.47
2022-08-18T18:41:03.001Z,54.28
2022-08-18T18:43:38.436Z,53.84
2022-08-18T18:46:23.354Z,55.49
2022-08-18T18:49:00.328Z,54.10
2022-08-18T18:51:36.142Z,54.04
2022-08-18T18:54:16.051Z,53.53
2022-08-18T18:56:50.442Z,53.88
2022-08-18T18:59:35.555Z,55.66
2022-08-18T19:02:34.529Z,55.47
2022-08-18T19:05:17.963Z,55.04
2022-08-18T19:08:08.892Z,56.16
2022-08-18T19:10:41.751Z,57.56
2022-08-18T19:13:32.170Z,56.58
2022-08-18T19:16:22.748Z,55.08
2022-08-18T19:19:36.093Z,54.65
2022-08-18T19:22:02.285Z,54.75
2022-08-18T19:24:38.910Z,54.74
2022-08-18T19:27:28.931Z,54.91
2022-08-18T19:30:04.347Z,55.05
2022-08-18T19:32:43.001Z,55.09
2022-08-18T19:35:19.634Z,55.10
2022-08-18T19:38:04.374Z,55.02
2022-08-18T19:40:43.091Z,55.21
2022-08-18T19:43:27.858Z,55.26
2022-08-18T19:46:05.543Z,55.09
2022-08-18T19:48:51.663Z,55.19
2022-08-18T19:51:29.322Z,55.24
2022-08-18T19:54:10.482Z,55.18
2022-08-18T19:56:56.993Z,55.47
2022-08-18T19:59:45.291Z,55.34
2022-08-18T20:02:27.132Z,55.55
2022-08-18T20:05:21.882Z,55.68
2022-08-18T20:08:18.253Z,55.84
2022-08-18T20:11:05.662Z,55.89
2022-08-18T20:13:43.369Z,56.01
2022-08-18T20:16:43.383Z,56.00
2022-08-18T20:19:42.772Z,56.29
2022-08-18T20:22:15.912Z,56.19
2022-08-18T20:24:51.853Z,56.26
2022-08-18T20:27:36.048Z,56.19
2022-08-18T20:30:33.415Z,56.59
2022-08-18T20:33:32.493Z,56.61
2022-08-18T20:36:13.221Z,56.84
2022-08-18T20:38:45.823Z,56.76
2022-08-18T20:41:41.571Z,56.94
2022-08-18T20:44:41.131Z,56.79
2022-08-18T20:47:38.492Z,57.12
2022-08-18T20:50:39.885Z,57.18
2022-08-18T20:53:22.512Z,57.06
2022-08-18T20:55:58.761Z,57.45
2022-08-18T20:58:38.801Z,57.48
2022-08-18T21:01:07.565Z,57.74
2022-08-18T21:03:38.191Z,57.48
2022-08-18T21:06:10.061Z,57.68
2022-08-18T21:08:40.502Z,57.78
2022-08-18T21:11:29.736Z,57.88
2022-08-18T21:14:04.897Z,58.08
2022-08-18T21:16:47.815Z,57.84
2022-08-18T21:19:24.340Z,58.16
2022-08-18T21:21:56.610Z,57.98
2022-08-18T21:24:31.895Z,58.11
2022-08-18T21:27:05.160Z,57.91
2022-08-18T21:29:48.952Z,58.08
2022-08-18T21:32:23.755Z,58.04
2022-08-18T21:34:53.086Z,58.25
2022-08-18T21:37:21.888Z,58.45
2022-08-18T21:39:53.497Z,58.65
2022-08-18T21:42:26.304Z,58.54
2022-08-18T21:45:00.584Z,58.67
2022-08-18T21:47:32.805Z,58.71
2022-08-18T21:50:08.725Z,58.75
2022-08-18T21:52:46.194Z,58.74
2022-08-18T21:55:21.415Z,58.81
2022-08-18T21:58:01.125Z,59.23
2022-08-18T22:00:39.556Z,59.09
2022-08-18T22:03:19.379Z,59.17
2022-08-18T22:06:00.582Z,59.29
2022-08-18T22:08:33.154Z,59.00
2022-08-18T22:12:00.432Z,59.39
2022-08-18T22:14:36.151Z,59.39
2022-08-18T22:17:30.850Z,59.45
2022-08-18T22:20:32.115Z,59.14
2022-08-18T22:23:22.435Z,59.17
2022-08-18T22:25:51.244Z,59.04
2022-08-18T22:28:23.784Z,59.08
2022-08-18T22:30:55.911Z,59.33
2022-08-18T22:33:25.909Z,59.10
2022-08-18T22:36:00.174Z,59.53
2022-08-18T22:38:31.933Z,59.50
2022-08-18T22:41:01.315Z,59.29
2022-08-18T22:43:29.844Z,59.38
2022-08-18T22:46:02.884Z,59.56
2022-08-18T22:48:32.805Z,59.15
2022-08-18T22:51:01.454Z,59.38
2022-08-18T22:53:30.743Z,59.36
2022-08-18T22:56:05.863Z,59.10
2022-08-18T22:58:36.084Z,59.49
2022-08-18T23:01:07.934Z,59.27
2022-08-18T23:03:42.629Z,59.49
2022-08-18T23:06:11.664Z,59.22
2022-08-18T23:08:54.747Z,59.27
2022-08-18T23:11:25.704Z,59.30
2022-08-18T23:13:54.313Z,59.46
2022-08-18T23:16:31.568Z,59.23
2022-08-18T23:19:03.411Z,59.34
2022-08-18T23:21:34.829Z,59.71
2022-08-18T23:24:07.784Z,59.77
2022-08-18T23:26:36.809Z,59.56
2022-08-18T23:29:10.164Z,59.78
2022-08-18T23:31:40.555Z,59.87
2022-08-18T23:34:13.768Z,59.80
2022-08-18T23:36:45.964Z,59.86
2022-08-18T23:39:15.107Z,60.10
2022-08-18T23:41:44.344Z,60.01
2022-08-18T23:44:16.443Z,59.90
2022-08-18T23:46:45.918Z,60.09
2022-08-18T23:49:16.874Z,59.82
2022-08-18T23:51:52.424Z,60.01
2022-08-18T23:54:24.114Z,59.93
2022-08-18T23:56:55.415Z,60.17
2022-08-18T23:59:25.734Z,59.94
